sensor_id;sensor_type;location;lat;lon;timestamp;temperature;humidity
56240;DHT22;42154;51.992;5.896;2023-03-14T00:01:23;12.70;99.90
56240;DHT22;42154;51.992;5.896;2023-03-14T00:03:49;12.70;99.90
56240;DHT22;42154;51.992;5.896;2023-03-14T00:06:16;12.70;99.90
56240;DHT22;42154;51.992;5.896;2023-03-14T00:08:43;12.70;99.90
56240;DHT22;42154;51.992;5.896;2023-03-14T00:11:20;12.70;99.90
56240;DHT22;42154;51.992;5.896;2023-03-14T00:13:50;12.70;99.90
56240;DHT22;42154;51.992;5.896;2023-03-14T00:16:16;12.70;99.90
56240;DHT22;42154;51.992;5.896;2023-03-14T00:18:42;12.70;99.90
56240;DHT22;42154;51.992;5.896;2023-03-14T00:21:09;12.70;99.90
56240;DHT22;42154;51.992;5.896;2023-03-14T00:23:36;12.70;99.90
56240;DHT22;42154;51.992;5.896;2023-03-14T00:26:05;12.60;99.90
56240;DHT22;42154;51.992;5.896;2023-03-14T00:28:32;12.60;99.90
56240;DHT22;42154;51.992;5.896;2023-03-14T00:30:58;12.50;99.90
56240;DHT22;42154;51.992;5.896;2023-03-14T00:33:24;12.40;99.90
56240;DHT22;42154;51.992;5.896;2023-03-14T00:35:58;12.30;99.90
56240;DHT22;42154;51.992;5.896;2023-03-14T00:38:25;12.20;99.90
56240;DHT22;42154;51.992;5.896;2023-03-14T00:40:54;12.20;99.90
56240;DHT22;42154;51.992;5.896;2023-03-14T00:43:21;12.10;99.90
56240;DHT22;42154;51.992;5.896;2023-03-14T00:45:50;12.10;99.90
56240;DHT22;42154;51.992;5.896;2023-03-14T00:48:17;12.00;99.90
56240;DHT22;42154;51.992;5.896;2023-03-14T00:50:43;12.00;99.90
56240;DHT22;42154;51.992;5.896;2023-03-14T00:53:08;11.90;99.90
56240;DHT22;42154;51.992;5.896;2023-03-14T00:55:39;11.90;99.90
56240;DHT22;42154;51.992;5.896;2023-03-14T00:58:05;11.90;99.90
56240;DHT22;42154;51.992;5.896;2023-03-14T01:00:31;11.90;99.90
56240;DHT22;42154;51.992;5.896;2023-03-14T01:02:57;11.80;99.90
56240;DHT22;42154;51.992;5.896;2023-03-14T01:05:23;11.80;99.90
56240;DHT22;42154;51.992;5.896;2023-03-14T01:07:49;11.70;99.90
56240;DHT22;42154;51.992;5.896;2023-03-14T01:10:15;11.70;99.90
56240;DHT22;42154;51.992;5.896;2023-03-14T01:12:41;11.70;99.90
56240;DHT22;42154;51.992;5.896;2023-03-14T01:15:08;11.70;99.90
56240;DHT22;42154;51.992;5.896;2023-03-14T01:17:34;11.70;99.90
56240;DHT22;42154;51.992;5.896;2023-03-14T01:20:00;11.70;99.90
56240;DHT22;42154;51.992;5.896;2023-03-14T01:22:26;11.70;99.90
56240;DHT22;42154;51.992;5.896;2023-03-14T01:24:52;11.70;99.90
56240;DHT22;42154;51.992;5.896;2023-03-14T01:27:18;11.70;99.90
56240;DHT22;42154;51.992;5.896;2023-03-14T01:29:44;11.70;99.90
56240;DHT22;42154;51.992;5.896;2023-03-14T01:32:10;11.70;99.90
56240;DHT22;42154;51.992;5.896;2023-03-14T01:34:35;11.70;99.90
56240;DHT22;42154;51.992;5.896;2023-03-14T01:37:01;11.70;99.90
56240;DHT22;42154;51.992;5.896;2023-03-14T01:39:28;11.70;99.90
56240;DHT22;42154;51.992;5.896;2023-03-14T01:41:54;11.70;99.90
56240;DHT22;42154;51.992;5.896;2023-03-14T01:44:20;11.70;99.90
56240;DHT22;42154;51.992;5.896;2023-03-14T01:46:46;11.70;99.90
56240;DHT22;42154;51.992;5.896;2023-03-14T01:49:24;11.70;99.90
56240;DHT22;42154;51.992;5.896;2023-03-14T01:52:11;11.70;99.90
56240;DHT22;42154;51.992;5.896;2023-03-14T01:54:41;11.60;99.90
56240;DHT22;42154;51.992;5.896;2023-03-14T01:57:13;11.50;99.90
56240;DHT22;42154;51.992;5.896;2023-03-14T01:59:48;11.40;99.90
56240;DHT22;42154;51.992;5.896;2023-03-14T02:02:17;11.40;99.90
56240;DHT22;42154;51.992;5.896;2023-03-14T02:04:43;11.40;99.90
56240;DHT22;42154;51.992;5.896;2023-03-14T02:07:19;11.30;99.90
56240;DHT22;42154;51.992;5.896;2023-03-14T02:09:58;11.30;99.90
56240;DHT22;42154;51.992;5.896;2023-03-14T02:12:28;11.20;99.90
56240;DHT22;42154;51.992;5.896;2023-03-14T02:15:11;11.10;99.90
56240;DHT22;42154;51.992;5.896;2023-03-14T02:18:02;11.10;99.90
56240;DHT22;42154;51.992;5.896;2023-03-14T02:21:06;11.00;99.90
56240;DHT22;42154;51.992;5.896;2023-03-14T02:23:57;10.80;99.90
56240;DHT22;42154;51.992;5.896;2023-03-14T02:26:40;10.80;99.90
56240;DHT22;42154;51.992;5.896;2023-03-14T02:29:07;10.80;99.90
56240;DHT22;42154;51.992;5.896;2023-03-14T02:31:35;10.80;99.90
56240;DHT22;42154;51.992;5.896;2023-03-14T02:34:01;10.80;99.90
56240;DHT22;42154;51.992;5.896;2023-03-14T02:36:28;10.70;99.90
56240;DHT22;42154;51.992;5.896;2023-03-14T02:39:08;10.70;99.90
56240;DHT22;42154;51.992;5.896;2023-03-14T02:41:40;10.70;99.90
56240;DHT22;42154;51.992;5.896;2023-03-14T02:44:07;10.70;99.90
56240;DHT22;42154;51.992;5.896;2023-03-14T02:46:33;10.60;99.90
56240;DHT22;42154;51.992;5.896;2023-03-14T02:49:05;10.60;99.90
56240;DHT22;42154;51.992;5.896;2023-03-14T02:51:33;10.70;99.90
56240;DHT22;42154;51.992;5.896;2023-03-14T02:53:59;10.70;99.90
56240;DHT22;42154;51.992;5.896;2023-03-14T02:56:25;10.70;99.90
56240;DHT22;42154;51.992;5.896;2023-03-14T02:58:51;10.70;99.90
56240;DHT22;42154;51.992;5.896;2023-03-14T03:01:28;10.70;99.90
56240;DHT22;42154;51.992;5.896;2023-03-14T03:03:53;10.70;99.90
56240;DHT22;42154;51.992;5.896;2023-03-14T03:06:19;10.70;99.90
56240;DHT22;42154;51.992;5.896;2023-03-14T03:08:45;10.70;99.90
56240;DHT22;42154;51.992;5.896;2023-03-14T03:11:11;10.70;99.90
56240;DHT22;42154;51.992;5.896;2023-03-14T03:13:37;10.70;99.90
56240;DHT22;42154;51.992;5.896;2023-03-14T03:16:04;10.70;99.90
56240;DHT22;42154;51.992;5.896;2023-03-14T03:18:30;10.70;99.90
56240;DHT22;42154;51.992;5.896;2023-03-14T03:21:04;10.70;99.90
56240;DHT22;42154;51.992;5.896;2023-03-14T03:23:31;10.70;99.90
56240;DHT22;42154;51.992;5.896;2023-03-14T03:25:57;10.70;99.90
56240;DHT22;42154;51.992;5.896;2023-03-14T03:28:23;10.70;99.90
56240;DHT22;42154;51.992;5.896;2023-03-14T03:30:50;10.60;99.90
56240;DHT22;42154;51.992;5.896;2023-03-14T03:33:16;10.60;99.90
56240;DHT22;42154;51.992;5.896;2023-03-14T03:35:49;10.60;99.90
56240;DHT22;42154;51.992;5.896;2023-03-14T03:38:19;10.70;99.90
56240;DHT22;42154;51.992;5.896;2023-03-14T03:40:48;10.60;99.90
56240;DHT22;42154;51.992;5.896;2023-03-14T03:43:14;10.60;99.90
56240;DHT22;42154;51.992;5.896;2023-03-14T03:45:43;10.70;99.90
56240;DHT22;42154;51.992;5.896;2023-03-14T03:48:08;10.60;99.90
56240;DHT22;42154;51.992;5.896;2023-03-14T03:50:35;10.60;99.90
56240;DHT22;42154;51.992;5.896;2023-03-14T03:53:00;10.70;99.90
56240;DHT22;42154;51.992;5.896;2023-03-14T03:55:26;10.60;99.90
56240;DHT22;42154;51.992;5.896;2023-03-14T03:57:54;10.70;99.90
56240;DHT22;42154;51.992;5.896;2023-03-14T04:00:19;10.70;99.90
56240;DHT22;42154;51.992;5.896;2023-03-14T04:02:47;10.70;99.90
56240;DHT22;42154;51.992;5.896;2023-03-14T04:05:15;10.70;99.90
56240;DHT22;42154;51.992;5.896;2023-03-14T04:07:48;10.60;99.90
56240;DHT22;42154;51.992;5.896;2023-03-14T04:10:19;10.70;99.90
56240;DHT22;42154;51.992;5.896;2023-03-14T04:13:05;10.70;99.90
56240;DHT22;42154;51.992;5.896;2023-03-14T04:15:33;10.70;99.90
56240;DHT22;42154;51.992;5.896;2023-03-14T04:18:03;10.60;99.90
56240;DHT22;42154;51.992;5.896;2023-03-14T04:20:30;10.60;99.90
56240;DHT22;42154;51.992;5.896;2023-03-14T04:22:55;10.60;99.90
56240;DHT22;42154;51.992;5.896;2023-03-14T04:25:21;10.60;99.90
56240;DHT22;42154;51.992;5.896;2023-03-14T04:27:52;10.60;99.90
56240;DHT22;42154;51.992;5.896;2023-03-14T04:30:22;10.60;99.90
56240;DHT22;42154;51.992;5.896;2023-03-14T04:33:00;10.60;99.90
56240;DHT22;42154;51.992;5.896;2023-03-14T04:35:29;10.60;99.90
56240;DHT22;42154;51.992;5.896;2023-03-14T04:38:00;10.70;99.90
56240;DHT22;42154;51.992;5.896;2023-03-14T04:40:26;10.70;99.90
56240;DHT22;42154;51.992;5.896;2023-03-14T04:42:56;10.70;99.90
56240;DHT22;42154;51.992;5.896;2023-03-14T04:45:23;10.70;99.90
56240;DHT22;42154;51.992;5.896;2023-03-14T04:47:48;10.70;99.90
56240;DHT22;42154;51.992;5.896;2023-03-14T04:50:17;10.70;99.90
56240;DHT22;42154;51.992;5.896;2023-03-14T04:52:44;10.70;99.90
56240;DHT22;42154;51.992;5.896;2023-03-14T04:55:11;10.70;99.90
56240;DHT22;42154;51.992;5.896;2023-03-14T04:57:37;10.80;99.90
56240;DHT22;42154;51.992;5.896;2023-03-14T05:00:04;10.80;99.90
56240;DHT22;42154;51.992;5.896;2023-03-14T05:02:51;10.80;99.90
56240;DHT22;42154;51.992;5.896;2023-03-14T05:05:43;10.80;99.90
56240;DHT22;42154;51.992;5.896;2023-03-14T05:08:39;10.80;99.90
56240;DHT22;42154;51.992;5.896;2023-03-14T05:11:23;10.80;99.90
56240;DHT22;42154;51.992;5.896;2023-03-14T05:13:52;10.80;99.90
56240;DHT22;42154;51.992;5.896;2023-03-14T05:16:55;10.80;99.90
56240;DHT22;42154;51.992;5.896;2023-03-14T05:19:38;10.80;99.90
56240;DHT22;42154;51.992;5.896;2023-03-14T05:22:13;10.80;99.90
56240;DHT22;42154;51.992;5.896;2023-03-14T05:24:57;10.80;99.90
56240;DHT22;42154;51.992;5.896;2023-03-14T05:27:33;10.80;99.90
56240;DHT22;42154;51.992;5.896;2023-03-14T05:30:09;10.70;99.90
56240;DHT22;42154;51.992;5.896;2023-03-14T05:32:56;10.70;99.90
56240;DHT22;42154;51.992;5.896;2023-03-14T05:35:57;10.70;99.90
56240;DHT22;42154;51.992;5.896;2023-03-14T05:38:43;10.70;99.90
56240;DHT22;42154;51.992;5.896;2023-03-14T05:41:23;10.70;99.90
56240;DHT22;42154;51.992;5.896;2023-03-14T05:44:09;10.70;99.90
56240;DHT22;42154;51.992;5.896;2023-03-14T05:46:49;10.70;99.90
56240;DHT22;42154;51.992;5.896;2023-03-14T05:49:28;10.60;99.90
56240;DHT22;42154;51.992;5.896;2023-03-14T05:52:14;10.60;99.90
56240;DHT22;42154;51.992;5.896;2023-03-14T05:54:58;10.60;99.90
56240;DHT22;42154;51.992;5.896;2023-03-14T05:57:39;10.60;99.90
56240;DHT22;42154;51.992;5.896;2023-03-14T06:00:31;10.60;99.90
56240;DHT22;42154;51.992;5.896;2023-03-14T06:03:12;10.60;99.90
56240;DHT22;42154;51.992;5.896;2023-03-14T06:05:43;10.60;99.90
56240;DHT22;42154;51.992;5.896;2023-03-14T06:08:08;10.60;99.90
56240;DHT22;42154;51.992;5.896;2023-03-14T06:10:35;10.60;99.90
56240;DHT22;42154;51.992;5.896;2023-03-14T06:13:01;10.60;99.90
56240;DHT22;42154;51.992;5.896;2023-03-14T06:15:27;10.60;99.90
56240;DHT22;42154;51.992;5.896;2023-03-14T06:17:56;10.60;99.90
56240;DHT22;42154;51.992;5.896;2023-03-14T06:20:22;10.60;99.90
56240;DHT22;42154;51.992;5.896;2023-03-14T06:22:48;10.60;99.90
56240;DHT22;42154;51.992;5.896;2023-03-14T06:25:14;10.50;99.90
56240;DHT22;42154;51.992;5.896;2023-03-14T06:27:44;10.50;99.90
56240;DHT22;42154;51.992;5.896;2023-03-14T06:30:10;10.60;99.90
56240;DHT22;42154;51.992;5.896;2023-03-14T06:32:36;10.50;99.90
56240;DHT22;42154;51.992;5.896;2023-03-14T06:35:07;10.50;99.90
56240;DHT22;42154;51.992;5.896;2023-03-14T06:37:36;10.50;99.90
56240;DHT22;42154;51.992;5.896;2023-03-14T06:40:03;10.50;99.90
56240;DHT22;42154;51.992;5.896;2023-03-14T06:42:46;10.60;99.90
56240;DHT22;42154;51.992;5.896;2023-03-14T06:45:14;10.50;99.90
56240;DHT22;42154;51.992;5.896;2023-03-14T06:47:40;10.60;99.90
56240;DHT22;42154;51.992;5.896;2023-03-14T06:50:08;10.50;99.90
56240;DHT22;42154;51.992;5.896;2023-03-14T06:52:34;10.60;99.90
56240;DHT22;42154;51.992;5.896;2023-03-14T06:55:00;10.60;99.90
56240;DHT22;42154;51.992;5.896;2023-03-14T06:57:26;10.60;99.90
56240;DHT22;42154;51.992;5.896;2023-03-14T06:59:52;10.70;99.90
56240;DHT22;42154;51.992;5.896;2023-03-14T07:02:18;10.70;99.90
56240;DHT22;42154;51.992;5.896;2023-03-14T07:04:44;10.70;99.90
56240;DHT22;42154;51.992;5.896;2023-03-14T07:07:09;10.70;99.90
56240;DHT22;42154;51.992;5.896;2023-03-14T07:09:36;10.70;99.90
56240;DHT22;42154;51.992;5.896;2023-03-14T07:12:02;10.80;99.90
56240;DHT22;42154;51.992;5.896;2023-03-14T07:14:30;10.80;99.90
56240;DHT22;42154;51.992;5.896;2023-03-14T07:16:56;10.80;99.90
56240;DHT22;42154;51.992;5.896;2023-03-14T07:19:22;10.80;99.90
56240;DHT22;42154;51.992;5.896;2023-03-14T07:21:47;10.80;99.90
56240;DHT22;42154;51.992;5.896;2023-03-14T07:24:16;10.80;99.90
56240;DHT22;42154;51.992;5.896;2023-03-14T07:26:41;10.80;99.90
56240;DHT22;42154;51.992;5.896;2023-03-14T07:29:07;10.80;99.90
56240;DHT22;42154;51.992;5.896;2023-03-14T07:31:33;10.70;99.90
56240;DHT22;42154;51.992;5.896;2023-03-14T07:34:00;10.60;99.90
56240;DHT22;42154;51.992;5.896;2023-03-14T07:36:30;10.50;99.90
56240;DHT22;42154;51.992;5.896;2023-03-14T07:38:56;10.40;99.90
56240;DHT22;42154;51.992;5.896;2023-03-14T07:41:51;10.40;99.90
56240;DHT22;42154;51.992;5.896;2023-03-14T07:44:36;10.30;99.90
56240;DHT22;42154;51.992;5.896;2023-03-14T07:47:02;10.10;99.90
56240;DHT22;42154;51.992;5.896;2023-03-14T07:49:28;10.00;99.90
56240;DHT22;42154;51.992;5.896;2023-03-14T07:51:53;9.80;99.90
56240;DHT22;42154;51.992;5.896;2023-03-14T07:54:19;9.70;99.90
56240;DHT22;42154;51.992;5.896;2023-03-14T07:56:45;9.70;99.90
56240;DHT22;42154;51.992;5.896;2023-03-14T07:59:11;9.50;99.90
56240;DHT22;42154;51.992;5.896;2023-03-14T08:01:37;9.40;99.90
56240;DHT22;42154;51.992;5.896;2023-03-14T08:04:03;9.30;99.90
56240;DHT22;42154;51.992;5.896;2023-03-14T08:06:29;9.30;99.90
56240;DHT22;42154;51.992;5.896;2023-03-14T08:08:55;9.30;99.90
56240;DHT22;42154;51.992;5.896;2023-03-14T08:11:21;9.20;99.90
56240;DHT22;42154;51.992;5.896;2023-03-14T08:13:47;9.10;99.90
56240;DHT22;42154;51.992;5.896;2023-03-14T08:16:19;9.00;99.90
56240;DHT22;42154;51.992;5.896;2023-03-14T08:18:45;8.90;99.90
56240;DHT22;42154;51.992;5.896;2023-03-14T08:21:11;8.90;99.90
56240;DHT22;42154;51.992;5.896;2023-03-14T08:23:37;8.90;99.90
56240;DHT22;42154;51.992;5.896;2023-03-14T08:26:03;8.90;99.90
56240;DHT22;42154;51.992;5.896;2023-03-14T08:28:29;8.90;99.90
56240;DHT22;42154;51.992;5.896;2023-03-14T08:30:58;8.90;99.90
56240;DHT22;42154;51.992;5.896;2023-03-14T08:33:25;9.00;99.90
56240;DHT22;42154;51.992;5.896;2023-03-14T08:35:52;9.00;99.90
56240;DHT22;42154;51.992;5.896;2023-03-14T08:38:18;8.90;99.90
56240;DHT22;42154;51.992;5.896;2023-03-14T08:40:44;8.80;99.90
56240;DHT22;42154;51.992;5.896;2023-03-14T08:43:10;8.70;99.90
56240;DHT22;42154;51.992;5.896;2023-03-14T08:45:35;8.60;99.90
56240;DHT22;42154;51.992;5.896;2023-03-14T08:48:01;8.60;99.90
56240;DHT22;42154;51.992;5.896;2023-03-14T08:50:27;8.60;99.90
56240;DHT22;42154;51.992;5.896;2023-03-14T08:52:52;8.50;99.90
56240;DHT22;42154;51.992;5.896;2023-03-14T08:55:18;8.50;99.90
56240;DHT22;42154;51.992;5.896;2023-03-14T08:57:44;8.40;99.90
56240;DHT22;42154;51.992;5.896;2023-03-14T09:00:11;8.30;99.90
56240;DHT22;42154;51.992;5.896;2023-03-14T09:02:40;8.30;99.90
56240;DHT22;42154;51.992;5.896;2023-03-14T09:05:07;8.20;99.90
56240;DHT22;42154;51.992;5.896;2023-03-14T09:07:33;8.10;99.90
56240;DHT22;42154;51.992;5.896;2023-03-14T09:09:58;8.10;99.90
56240;DHT22;42154;51.992;5.896;2023-03-14T09:12:24;8.20;99.90
56240;DHT22;42154;51.992;5.896;2023-03-14T09:14:50;8.20;99.90
56240;DHT22;42154;51.992;5.896;2023-03-14T09:17:15;8.10;99.90
56240;DHT22;42154;51.992;5.896;2023-03-14T09:19:41;8.00;99.90
56240;DHT22;42154;51.992;5.896;2023-03-14T09:22:07;7.90;99.90
56240;DHT22;42154;51.992;5.896;2023-03-14T09:24:33;7.80;99.90
56240;DHT22;42154;51.992;5.896;2023-03-14T09:26:58;7.70;99.90
56240;DHT22;42154;51.992;5.896;2023-03-14T09:29:24;7.70;99.90
56240;DHT22;42154;51.992;5.896;2023-03-14T09:31:50;7.70;99.90
56240;DHT22;42154;51.992;5.896;2023-03-14T09:34:16;7.70;99.90
56240;DHT22;42154;51.992;5.896;2023-03-14T09:36:42;7.80;99.90
56240;DHT22;42154;51.992;5.896;2023-03-14T09:39:10;8.00;99.90
56240;DHT22;42154;51.992;5.896;2023-03-14T09:41:40;8.10;99.90
56240;DHT22;42154;51.992;5.896;2023-03-14T09:44:29;8.10;99.90
56240;DHT22;42154;51.992;5.896;2023-03-14T09:47:02;8.00;99.90
56240;DHT22;42154;51.992;5.896;2023-03-14T09:49:56;7.90;99.90
56240;DHT22;42154;51.992;5.896;2023-03-14T09:52:29;8.00;99.90
56240;DHT22;42154;51.992;5.896;2023-03-14T09:55:03;8.00;99.90
56240;DHT22;42154;51.992;5.896;2023-03-14T09:57:29;8.10;99.90
56240;DHT22;42154;51.992;5.896;2023-03-14T10:00:00;8.20;99.90
56240;DHT22;42154;51.992;5.896;2023-03-14T10:02:34;8.10;99.90
56240;DHT22;42154;51.992;5.896;2023-03-14T10:05:01;8.10;99.90
56240;DHT22;42154;51.992;5.896;2023-03-14T10:07:32;8.10;99.90
56240;DHT22;42154;51.992;5.896;2023-03-14T10:09:58;8.10;99.90
56240;DHT22;42154;51.992;5.896;2023-03-14T10:12:35;8.00;99.90
56240;DHT22;42154;51.992;5.896;2023-03-14T10:15:04;8.10;99.90
56240;DHT22;42154;51.992;5.896;2023-03-14T10:17:39;8.30;99.90
56240;DHT22;42154;51.992;5.896;2023-03-14T10:20:05;8.40;99.90
56240;DHT22;42154;51.992;5.896;2023-03-14T10:22:32;8.40;99.90
56240;DHT22;42154;51.992;5.896;2023-03-14T10:25:24;8.50;99.90
56240;DHT22;42154;51.992;5.896;2023-03-14T10:27:47;8.40;99.90
56240;DHT22;42154;51.992;5.896;2023-03-14T10:30:29;8.50;99.90
56240;DHT22;42154;51.992;5.896;2023-03-14T10:32:56;8.60;99.90
56240;DHT22;42154;51.992;5.896;2023-03-14T10:35:22;8.50;99.90
56240;DHT22;42154;51.992;5.896;2023-03-14T10:37:55;8.50;99.90
56240;DHT22;42154;51.992;5.896;2023-03-14T10:40:31;8.50;99.90
56240;DHT22;42154;51.992;5.896;2023-03-14T10:43:01;8.50;99.90
56240;DHT22;42154;51.992;5.896;2023-03-14T10:45:31;8.50;99.90
56240;DHT22;42154;51.992;5.896;2023-03-14T10:48:05;8.50;99.90
56240;DHT22;42154;51.992;5.896;2023-03-14T10:50:33;8.50;99.90
56240;DHT22;42154;51.992;5.896;2023-03-14T10:53:02;8.50;99.90
56240;DHT22;42154;51.992;5.896;2023-03-14T10:55:43;8.50;99.90
56240;DHT22;42154;51.992;5.896;2023-03-14T10:58:23;8.60;99.90
56240;DHT22;42154;51.992;5.896;2023-03-14T11:01:39;8.60;99.90
56240;DHT22;42154;51.992;5.896;2023-03-14T11:09:31;7.90;99.90
56240;DHT22;42154;51.992;5.896;2023-03-14T11:15:20;7.60;99.90
56240;DHT22;42154;51.992;5.896;2023-03-14T11:20:26;7.60;99.90
56240;DHT22;42154;51.992;5.896;2023-03-14T11:23:18;7.70;99.90
56240;DHT22;42154;51.992;5.896;2023-03-14T11:28:40;7.80;99.90
56240;DHT22;42154;51.992;5.896;2023-03-14T11:33:51;7.50;99.90
56240;DHT22;42154;51.992;5.896;2023-03-14T11:36:46;7.20;99.90
56240;DHT22;42154;51.992;5.896;2023-03-14T11:39:16;7.30;99.90
56240;DHT22;42154;51.992;5.896;2023-03-14T11:41:51;7.30;99.90
56240;DHT22;42154;51.992;5.896;2023-03-14T11:44:26;7.40;99.90
56240;DHT22;42154;51.992;5.896;2023-03-14T11:47:34;7.50;99.90
56240;DHT22;42154;51.992;5.896;2023-03-14T11:52:38;7.50;99.90
56240;DHT22;42154;51.992;5.896;2023-03-14T11:58:23;7.60;99.90
56240;DHT22;42154;51.992;5.896;2023-03-14T12:00:51;7.70;99.90
56240;DHT22;42154;51.992;5.896;2023-03-14T12:03:44;7.80;99.90
56240;DHT22;42154;51.992;5.896;2023-03-14T12:06:32;8.10;99.90
56240;DHT22;42154;51.992;5.896;2023-03-14T12:09:02;8.30;99.90
56240;DHT22;42154;51.992;5.896;2023-03-14T12:13:58;8.70;99.90
56240;DHT22;42154;51.992;5.896;2023-03-14T12:18:50;8.70;99.90
56240;DHT22;42154;51.992;5.896;2023-03-14T12:21:17;8.70;99.90
56240;DHT22;42154;51.992;5.896;2023-03-14T12:23:44;8.70;99.90
56240;DHT22;42154;51.992;5.896;2023-03-14T12:26:26;8.70;99.90
56240;DHT22;42154;51.992;5.896;2023-03-14T12:39:43;8.50;98.90
56240;DHT22;42154;51.992;5.896;2023-03-14T12:45:14;8.60;97.80
56240;DHT22;42154;51.992;5.896;2023-03-14T12:47:50;8.60;96.50
56240;DHT22;42154;51.992;5.896;2023-03-14T12:50:34;8.70;96.40
56240;DHT22;42154;51.992;5.896;2023-03-14T12:55:57;8.80;94.80
56240;DHT22;42154;51.992;5.896;2023-03-14T12:58:39;8.70;94.70
56240;DHT22;42154;51.992;5.896;2023-03-14T13:01:16;8.60;95.30
56240;DHT22;42154;51.992;5.896;2023-03-14T13:03:55;8.60;94.00
56240;DHT22;42154;51.992;5.896;2023-03-14T13:06:57;8.60;94.60
56240;DHT22;42154;51.992;5.896;2023-03-14T13:12:02;8.70;95.00
56240;DHT22;42154;51.992;5.896;2023-03-14T13:14:31;8.80;95.20
56240;DHT22;42154;51.992;5.896;2023-03-14T13:17:00;8.90;95.70
56240;DHT22;42154;51.992;5.896;2023-03-14T13:19:28;9.00;95.50
56240;DHT22;42154;51.992;5.896;2023-03-14T13:22:03;9.10;94.90
56240;DHT22;42154;51.992;5.896;2023-03-14T13:24:33;9.10;94.00
56240;DHT22;42154;51.992;5.896;2023-03-14T13:26:59;9.10;94.80
56240;DHT22;42154;51.992;5.896;2023-03-14T13:29:27;9.20;94.70
56240;DHT22;42154;51.992;5.896;2023-03-14T13:31:56;9.30;94.10
56240;DHT22;42154;51.992;5.896;2023-03-14T13:34:28;9.20;91.30
56240;DHT22;42154;51.992;5.896;2023-03-14T13:36:54;9.10;91.40
56240;DHT22;42154;51.992;5.896;2023-03-14T13:39:22;8.90;92.10
56240;DHT22;42154;51.992;5.896;2023-03-14T13:41:51;8.90;91.90
56240;DHT22;42154;51.992;5.896;2023-03-14T13:44:36;8.80;92.20
56240;DHT22;42154;51.992;5.896;2023-03-14T13:47:09;8.80;91.50
56240;DHT22;42154;51.992;5.896;2023-03-14T13:49:36;8.80;91.80
56240;DHT22;42154;51.992;5.896;2023-03-14T13:52:03;8.90;90.70
56240;DHT22;42154;51.992;5.896;2023-03-14T13:54:31;8.90;90.20
56240;DHT22;42154;51.992;5.896;2023-03-14T13:57:01;8.80;90.10
56240;DHT22;42154;51.992;5.896;2023-03-14T13:59:30;8.80;90.00
56240;DHT22;42154;51.992;5.896;2023-03-14T14:01:58;8.80;89.90
56240;DHT22;42154;51.992;5.896;2023-03-14T14:04:25;8.60;88.90
56240;DHT22;42154;51.992;5.896;2023-03-14T14:07:09;8.40;89.20
56240;DHT22;42154;51.992;5.896;2023-03-14T14:09:42;8.40;90.40
56240;DHT22;42154;51.992;5.896;2023-03-14T14:12:14;8.50;90.30
56240;DHT22;42154;51.992;5.896;2023-03-14T14:17:14;8.60;90.20
56240;DHT22;42154;51.992;5.896;2023-03-14T14:19:43;8.60;90.40
56240;DHT22;42154;51.992;5.896;2023-03-14T14:22:10;8.60;89.70
56240;DHT22;42154;51.992;5.896;2023-03-14T14:24:37;8.50;89.30
56240;DHT22;42154;51.992;5.896;2023-03-14T14:27:29;8.50;89.20
56240;DHT22;42154;51.992;5.896;2023-03-14T14:32:49;8.60;88.10
56240;DHT22;42154;51.992;5.896;2023-03-14T14:35:34;8.60;88.80
56240;DHT22;42154;51.992;5.896;2023-03-14T14:38:01;8.60;88.20
56240;DHT22;42154;51.992;5.896;2023-03-14T14:40:29;8.70;86.70
56240;DHT22;42154;51.992;5.896;2023-03-14T14:43:02;8.80;86.80
56240;DHT22;42154;51.992;5.896;2023-03-14T14:45:28;8.80;85.30
56240;DHT22;42154;51.992;5.896;2023-03-14T14:50:29;8.70;84.00
56240;DHT22;42154;51.992;5.896;2023-03-14T14:55:57;8.50;83.30
56240;DHT22;42154;51.992;5.896;2023-03-14T14:58:27;8.40;83.60
56240;DHT22;42154;51.992;5.896;2023-03-14T15:01:02;8.30;81.90
56240;DHT22;42154;51.992;5.896;2023-03-14T15:03:31;8.20;80.80
56240;DHT22;42154;51.992;5.896;2023-03-14T15:05:58;8.20;80.80
56240;DHT22;42154;51.992;5.896;2023-03-14T15:08:25;8.10;80.90
56240;DHT22;42154;51.992;5.896;2023-03-14T15:10:51;8.10;80.90
56240;DHT22;42154;51.992;5.896;2023-03-14T15:13:17;8.10;80.60
56240;DHT22;42154;51.992;5.896;2023-03-14T15:15:43;8.10;80.30
56240;DHT22;42154;51.992;5.896;2023-03-14T15:18:17;8.10;81.00
56240;DHT22;42154;51.992;5.896;2023-03-14T15:20:44;8.00;81.00
56240;DHT22;42154;51.992;5.896;2023-03-14T15:23:15;8.00;82.30
56240;DHT22;42154;51.992;5.896;2023-03-14T15:25:41;8.00;81.50
56240;DHT22;42154;51.992;5.896;2023-03-14T15:28:19;8.00;82.70
56240;DHT22;42154;51.992;5.896;2023-03-14T15:30:49;7.90;83.80
56240;DHT22;42154;51.992;5.896;2023-03-14T15:33:15;7.90;84.40
56240;DHT22;42154;51.992;5.896;2023-03-14T15:35:41;7.90;84.70
56240;DHT22;42154;51.992;5.896;2023-03-14T15:38:11;8.00;85.30
56240;DHT22;42154;51.992;5.896;2023-03-14T15:40:37;8.00;86.70
56240;DHT22;42154;51.992;5.896;2023-03-14T15:43:03;8.00;86.30
56240;DHT22;42154;51.992;5.896;2023-03-14T15:45:29;7.90;86.50
56240;DHT22;42154;51.992;5.896;2023-03-14T15:47:55;7.90;87.50
56240;DHT22;42154;51.992;5.896;2023-03-14T15:50:22;7.90;88.40
56240;DHT22;42154;51.992;5.896;2023-03-14T15:52:48;7.80;88.80
56240;DHT22;42154;51.992;5.896;2023-03-14T15:55:14;7.80;89.10
56240;DHT22;42154;51.992;5.896;2023-03-14T15:57:41;7.70;89.30
56240;DHT22;42154;51.992;5.896;2023-03-14T16:00:15;7.70;89.70
56240;DHT22;42154;51.992;5.896;2023-03-14T16:02:41;7.60;90.20
56240;DHT22;42154;51.992;5.896;2023-03-14T16:05:09;7.60;90.50
56240;DHT22;42154;51.992;5.896;2023-03-14T16:07:35;7.60;90.80
56240;DHT22;42154;51.992;5.896;2023-03-14T16:10:02;7.60;90.80
56240;DHT22;42154;51.992;5.896;2023-03-14T16:12:28;7.60;90.90
56240;DHT22;42154;51.992;5.896;2023-03-14T16:14:54;7.60;91.00
56240;DHT22;42154;51.992;5.896;2023-03-14T16:17:20;7.60;91.10
56240;DHT22;42154;51.992;5.896;2023-03-14T16:19:46;7.60;91.60
56240;DHT22;42154;51.992;5.896;2023-03-14T16:22:12;7.50;91.20
56240;DHT22;42154;51.992;5.896;2023-03-14T16:24:38;7.50;91.50
56240;DHT22;42154;51.992;5.896;2023-03-14T16:27:03;7.50;91.20
56240;DHT22;42154;51.992;5.896;2023-03-14T16:29:30;7.50;90.70
56240;DHT22;42154;51.992;5.896;2023-03-14T16:31:55;7.40;90.60
56240;DHT22;42154;51.992;5.896;2023-03-14T16:34:21;7.30;90.70
56240;DHT22;42154;51.992;5.896;2023-03-14T16:36:47;7.20;90.20
56240;DHT22;42154;51.992;5.896;2023-03-14T16:39:17;7.20;90.40
56240;DHT22;42154;51.992;5.896;2023-03-14T16:41:43;7.30;90.80
56240;DHT22;42154;51.992;5.896;2023-03-14T16:44:08;7.20;90.60
56240;DHT22;42154;51.992;5.896;2023-03-14T16:46:34;7.20;90.70
56240;DHT22;42154;51.992;5.896;2023-03-14T16:49:01;7.20;90.60
56240;DHT22;42154;51.992;5.896;2023-03-14T16:51:27;7.10;90.20
56240;DHT22;42154;51.992;5.896;2023-03-14T16:53:53;7.00;90.60
56240;DHT22;42154;51.992;5.896;2023-03-14T16:56:19;7.00;90.30